map of BHH home
Great Circle Mapper logo
BHH - Airport
Location
City:  Bisha, Saudi Arabia
ICAO / IATA:OEBH / BHH

Details
Type:Airport (Aerodrome, Airfield)
Use:Public/Civil, Military
Latitude:1959'04"N (19.984350)
Longitude:4237'15"E (42.620881)
Datum:other
Elevation:3887 ft (1185 m)
Runways:1
Longest:10007 × 147 ft (3050 × 45 m), paved

Time
Time Zone:UTC+3
Local Time:

Weather
METAR:OEBH 231700Z 35007KT CAVOK 33/M01 Q1011 NOSIG

Related Locations
Nearby:
Farthest:ZTA: 12346 mi / 19869 km
Tureia, PF

Find:

   beyond  
but within

Other Information
Maps:
NOTAMs:
Links:
Sources:

  
flag of Saudi Arabia   

Sectional Chart

Flight Planning
at skyvector.com

Satellite Image

Google Maps Satellite View

 

Copyright © 2004-2014 Karl L. Swartz. All rights reserved.
The Great Circle Mapper name and logo are trademarks of the Great Circle Mapper.
All other trademarks mentioned herein belong to their respective owners.
Please see credits for attibutions and further copyright information.

  Follow gcmap on Facebook Follow gcmap on Twitter

hCard Microformat

Geo Microformat